Time;durP1;ratioP1;P1;durP2;ratioP2;P2;SDS_P1;SDS_P2;PMS_P1;PMS_P2;Temp;Humidity;BMP_temperature;BMP_pressure;BME280_temperature;BME280_humidity;BME280_pressure;Samples;Min_cycle;Max_cycle;Signal;HPM_P1;HPM_P2
2023/05/17 00:00:27;;;;;;;11.10;5.93;;;;;;;-140.66;100.00;55571.53;5103773;28;20042;-79
2023/05/17 00:03:13;;;;;;;13.65;5.93;;;;;;;-140.66;100.00;55571.53;5119278;28;20126;-78
2023/05/17 00:05:58;;;;;;;9.25;5.80;;;;;;;-140.66;100.00;55571.53;5117978;28;20436;-78
2023/05/17 00:08:44;;;;;;;11.50;6.10;;;;;;;-140.66;100.00;55571.53;5103229;28;20023;-77
2023/05/17 00:11:30;;;;;;;10.10;5.90;;;;;;;-140.66;100.00;55571.53;5119064;28;20508;-78
2023/05/17 00:14:16;;;;;;;9.70;5.70;;;;;;;-140.66;100.00;55571.53;5103300;28;20020;-78
2023/05/17 00:17:01;;;;;;;12.25;5.97;;;;;;;-140.66;100.00;55571.53;5102369;28;20037;-78
2023/05/17 00:19:47;;;;;;;11.18;5.85;;;;;;;-140.66;100.00;55571.53;5118306;28;20036;-78
2023/05/17 00:22:33;;;;;;;7.72;5.78;;;;;;;-140.66;100.00;55571.53;5116935;28;20100;-78
2023/05/17 00:25:19;;;;;;;9.15;5.63;;;;;;;-140.66;100.00;55571.53;5102020;28;20035;-77
2023/05/17 00:28:05;;;;;;;10.85;6.22;;;;;;;-140.66;100.00;55571.53;5117321;28;20052;-77
2023/05/17 00:30:50;;;;;;;9.25;5.57;;;;;;;-140.66;100.00;55571.53;5116712;28;20034;-77
2023/05/17 00:33:36;;;;;;;11.00;5.78;;;;;;;-140.66;100.00;55571.53;5118578;28;20081;-78
2023/05/17 00:36:22;;;;;;;11.15;5.72;;;;;;;-140.66;100.00;55571.53;5116561;28;20027;-79
2023/05/17 00:39:07;;;;;;;10.35;6.10;;;;;;;-140.66;100.00;55571.53;5102356;28;20110;-78
2023/05/17 00:41:53;;;;;;;13.25;6.55;;;;;;;-140.66;100.00;55571.53;5118509;28;20031;-77
2023/05/17 00:44:39;;;;;;;10.48;6.60;;;;;;;-140.66;100.00;55571.53;5116430;28;20032;-77
2023/05/17 00:47:25;;;;;;;13.32;6.95;;;;;;;-140.66;100.00;55571.53;5116932;28;20063;-77
2023/05/17 00:50:11;;;;;;;14.35;7.93;;;;;;;-140.66;100.00;55571.53;5120585;28;20027;-76
2023/05/17 00:52:57;;;;;;;23.92;8.50;;;;;;;-140.66;100.00;55571.53;5133272;28;20106;-77
2023/05/17 00:55:44;;;;;;;14.48;7.72;;;;;;;-140.66;100.00;55571.53;5133822;28;20024;-76
2023/05/17 00:58:30;;;;;;;16.13;7.65;;;;;;;-140.66;100.00;55571.53;5111891;28;20023;-78
2023/05/17 01:01:15;;;;;;;15.18;7.95;;;;;;;-140.66;100.00;55571.53;5116804;28;20035;-77
2023/05/17 01:04:01;;;;;;;15.15;7.95;;;;;;;-140.66;100.00;55571.53;5117469;28;20032;-78
2023/05/17 01:06:48;;;;;;;17.77;7.80;;;;;;;-140.66;100.00;55571.53;5116832;28;20034;-77
2023/05/17 01:09:33;;;;;;;15.63;6.93;;;;;;;-140.66;100.00;55571.53;5116695;28;20455;-77
2023/05/17 01:12:56;;;;;;;14.50;7.32;;;;;;;-140.66;100.00;55571.53;5117788;28;20032;-78
2023/05/17 01:15:49;;;;;;;12.18;7.68;;;;;;;-140.66;100.00;55571.53;5116666;28;20083;-77
2023/05/17 01:18:43;;;;;;;12.60;7.38;;;;;;;-140.66;100.00;55571.53;5117111;28;20391;-77
2023/05/17 01:21:42;;;;;;;12.60;7.93;;;;;;;-140.66;100.00;55571.53;5116395;28;20028;-77
2023/05/17 01:24:38;;;;;;;14.35;7.60;;;;;;;-140.66;100.00;55571.53;5116646;28;20023;-78
2023/05/17 01:27:27;;;;;;;17.85;7.95;;;;;;;-140.66;100.00;55571.53;5116553;28;20130;-79
2023/05/17 01:30:16;;;;;;;14.32;8.15;;;;;;;-140.66;100.00;55571.53;5116727;28;20027;-79
2023/05/17 01:33:03;;;;;;;14.70;7.65;;;;;;;-140.66;100.00;55571.53;5116254;28;20027;-78
2023/05/17 01:35:48;;;;;;;15.02;8.73;;;;;;;-140.66;100.00;55571.53;5116362;28;20037;-78
2023/05/17 01:38:34;;;;;;;16.10;8.25;;;;;;;-140.66;100.00;55571.53;5116866;28;20020;-78
2023/05/17 01:41:37;;;;;;;17.88;8.68;;;;;;;-140.66;100.00;55571.53;5115810;28;20035;-78
2023/05/17 01:44:36;;;;;;;14.10;8.60;;;;;;;-140.66;100.00;55571.53;5116497;28;20042;-78
2023/05/17 01:47:31;;;;;;;14.52;7.63;;;;;;;-140.66;100.00;55571.53;5102391;28;20019;-78
2023/05/17 01:50:22;;;;;;;18.42;8.20;;;;;;;-140.66;100.00;55571.53;5116624;28;20152;-79
2023/05/17 01:53:16;;;;;;;12.05;7.88;;;;;;;-140.66;100.00;55571.53;5102357;28;20032;-77
2023/05/17 01:56:06;;;;;;;16.83;8.25;;;;;;;-140.66;100.00;55571.53;5116286;28;20442;-77
2023/05/17 01:58:52;;;;;;;14.98;8.77;;;;;;;-140.66;100.00;55571.53;5102607;28;20454;-78
2023/05/17 02:01:39;;;;;;;14.95;9.07;;;;;;;-140.66;100.00;55571.53;5102793;28;20034;-78
2023/05/17 02:04:25;;;;;;;13.95;8.80;;;;;;;-140.66;100.00;55571.53;5109071;28;20024;-76
2023/05/17 02:07:11;;;;;;;13.77;9.40;;;;;;;-140.66;100.00;55571.53;5132495;28;20024;-78
2023/05/17 02:09:56;;;;;;;13.98;8.05;;;;;;;-140.66;100.00;55571.53;5113112;28;20034;-76
2023/05/17 02:12:42;;;;;;;12.82;8.52;;;;;;;-140.66;100.00;55571.53;5134024;28;20102;-77
2023/05/17 02:15:28;;;;;;;17.40;9.05;;;;;;;-140.66;100.00;55571.53;5131316;28;20047;-77
2023/05/17 02:18:14;;;;;;;19.58;9.95;;;;;;;-140.66;100.00;55571.53;5114966;28;20037;-77
2023/05/17 02:21:00;;;;;;;16.70;9.32;;;;;;;-140.66;100.00;55571.53;5103154;28;20396;-78
2023/05/17 02:23:46;;;;;;;15.70;10.23;;;;;;;-140.66;100.00;55571.53;5116058;28;20118;-77
2023/05/17 02:26:31;;;;;;;15.60;9.88;;;;;;;-140.66;100.00;55571.53;5115859;28;20106;-78
2023/05/17 02:29:17;;;;;;;17.30;8.85;;;;;;;-140.66;100.00;55571.53;5115718;28;20051;-78
2023/05/17 02:32:04;;;;;;;13.18;8.52;;;;;;;-140.66;100.00;55571.53;5110714;28;20027;-78
2023/05/17 02:34:51;;;;;;;15.23;9.27;;;;;;;-140.66;100.00;55571.53;5115038;28;20115;-77
2023/05/17 02:37:37;;;;;;;16.48;9.60;;;;;;;-140.66;100.00;55571.53;5130435;28;20404;-78
2023/05/17 02:40:23;;;;;;;17.45;9.00;;;;;;;-140.66;100.00;55571.53;5133289;28;20046;-76
2023/05/17 02:43:11;;;;;;;16.40;9.65;;;;;;;-140.66;100.00;55571.53;5129036;28;20313;-78
2023/05/17 02:45:57;;;;;;;15.30;8.85;;;;;;;-140.66;100.00;55571.53;5114559;28;20026;-78
2023/05/17 02:48:43;;;;;;;14.80;9.50;;;;;;;-140.66;100.00;55571.53;5128617;28;20027;-77
2023/05/17 02:51:28;;;;;;;16.73;9.63;;;;;;;-140.66;100.00;55571.53;5128942;28;20076;-77
2023/05/17 02:54:14;;;;;;;14.27;9.88;;;;;;;-140.66;100.00;55571.53;5123232;28;20031;-78
2023/05/17 02:57:00;;;;;;;15.77;9.98;;;;;;;-140.66;100.00;55571.53;5119104;28;20026;-78
2023/05/17 02:59:46;;;;;;;14.10;9.88;;;;;;;-140.66;100.00;55571.53;5117022;28;20072;-78
2023/05/17 03:02:31;;;;;;;21.80;11.60;;;;;;;-140.66;100.00;55571.53;5102024;28;20026;-80
2023/05/17 03:05:17;;;;;;;18.00;11.38;;;;;;;-140.66;100.00;55571.53;5100489;28;20043;-78
2023/05/17 03:08:03;;;;;;;17.70;10.80;;;;;;;-140.66;100.00;55571.53;5117752;28;20035;-76
2023/05/17 03:10:50;;;;;;;22.33;11.45;;;;;;;-140.66;100.00;55571.53;5101670;28;20474;-78
2023/05/17 03:13:35;;;;;;;17.45;12.07;;;;;;;-140.66;100.00;55571.53;5101102;28;20031;-79
2023/05/17 03:16:21;;;;;;;17.50;11.43;;;;;;;-140.66;100.00;55571.53;5100849;28;20080;-77
2023/05/17 03:19:07;;;;;;;17.90;11.43;;;;;;;-140.66;100.00;55571.53;5114368;28;20474;-78
2023/05/17 03:21:53;;;;;;;23.25;12.18;;;;;;;-140.66;100.00;55571.53;5118260;28;20039;-77
2023/05/17 03:24:38;;;;;;;18.17;12.73;;;;;;;-140.66;100.00;55571.53;5114983;28;20024;-77
2023/05/17 03:27:24;;;;;;;18.45;12.00;;;;;;;-140.66;100.00;55571.53;5115849;28;20051;-78
2023/05/17 03:30:10;;;;;;;16.65;11.40;;;;;;;-140.66;100.00;55571.53;5114662;28;20081;-79
2023/05/17 03:32:56;;;;;;;17.33;11.90;;;;;;;-140.66;100.00;55571.53;5101883;28;20024;-78
2023/05/17 03:35:42;;;;;;;19.23;12.23;;;;;;;-140.66;100.00;55571.53;5114357;28;20055;-78
2023/05/17 03:38:27;;;;;;;20.30;11.75;;;;;;;-140.66;100.00;55571.53;5114512;28;20349;-78
2023/05/17 03:41:14;;;;;;;21.65;12.10;;;;;;;-140.66;100.00;55571.53;5114304;28;20027;-79
2023/05/17 03:44:00;;;;;;;20.75;12.38;;;;;;;-140.66;100.00;55571.53;5099821;28;20459;-79
2023/05/17 03:46:46;;;;;;;18.02;12.95;;;;;;;-140.66;100.00;55571.53;5100862;28;20422;-78
2023/05/17 03:49:31;;;;;;;19.63;12.60;;;;;;;-140.66;100.00;55571.53;5114891;28;20023;-78
2023/05/17 03:52:17;;;;;;;21.17;13.07;;;;;;;-140.66;100.00;55571.53;5114392;28;20371;-79
2023/05/17 03:55:03;;;;;;;18.33;11.68;;;;;;;-140.66;100.00;55571.53;5116049;28;20062;-78
2023/05/17 03:57:49;;;;;;;16.10;11.55;;;;;;;-140.66;100.00;55571.53;5114483;28;20023;-78
2023/05/17 04:00:35;;;;;;;19.42;11.98;;;;;;;-140.66;100.00;55571.53;5099809;28;20448;-78
2023/05/17 04:03:21;;;;;;;20.30;12.85;;;;;;;-140.66;100.00;55571.53;5102705;28;20028;-78
2023/05/17 04:06:07;;;;;;;18.17;11.70;;;;;;;-140.66;100.00;55571.53;5119256;28;20035;-78
2023/05/17 04:08:54;;;;;;;21.08;12.00;;;;;;;-140.66;100.00;55571.53;5118515;28;20440;-77
2023/05/17 04:11:40;;;;;;;20.38;11.93;;;;;;;-140.66;100.00;55571.53;5116923;28;20448;-78
2023/05/17 04:14:26;;;;;;;20.17;12.88;;;;;;;-140.66;100.00;55571.53;5116894;28;20038;-78
2023/05/17 04:17:12;;;;;;;19.02;11.68;;;;;;;-140.66;100.00;55571.53;5117999;28;20028;-80
2023/05/17 04:19:58;;;;;;;17.42;11.73;;;;;;;-140.66;100.00;55571.53;5109460;28;20341;-76
2023/05/17 04:22:44;;;;;;;21.42;13.13;;;;;;;-140.66;100.00;55571.53;5117934;28;20348;-75
2023/05/17 04:25:29;;;;;;;18.02;12.48;;;;;;;-140.66;100.00;55571.53;5120598;28;20016;-74
2023/05/17 04:28:15;;;;;;;19.83;12.57;;;;;;;-140.66;100.00;55571.53;5107603;28;20048;-75
2023/05/17 04:31:01;;;;;;;19.70;12.23;;;;;;;-140.66;100.00;55571.53;5119550;28;20088;-76
2023/05/17 04:33:47;;;;;;;18.25;12.88;;;;;;;-140.66;100.00;55571.53;5118585;28;20031;-77
2023/05/17 04:36:32;;;;;;;19.55;13.38;;;;;;;-140.66;100.00;55571.53;5119227;28;20024;-75
2023/05/17 04:39:19;;;;;;;23.20;13.68;;;;;;;-140.66;100.00;55571.53;5119974;28;20031;-77
2023/05/17 04:42:05;;;;;;;20.77;12.90;;;;;;;-140.66;100.00;55571.53;5126828;28;20071;-77
2023/05/17 04:44:51;;;;;;;19.40;13.63;;;;;;;-140.66;100.00;55571.53;5116271;28;20351;-77
2023/05/17 04:47:37;;;;;;;20.98;15.27;;;;;;;-140.66;100.00;55571.53;5123879;28;20038;-77
2023/05/17 04:50:23;;;;;;;21.23;13.60;;;;;;;-140.66;100.00;55571.53;5104746;28;20051;-77
2023/05/17 04:53:08;;;;;;;23.05;15.35;;;;;;;-140.66;100.00;55571.53;5120798;28;20027;-77
2023/05/17 04:55:54;;;;;;;22.75;14.57;;;;;;;-140.66;100.00;55571.53;5120960;28;20080;-78
2023/05/17 04:58:40;;;;;;;22.17;14.25;;;;;;;-140.66;100.00;55571.53;5117578;28;20042;-77
2023/05/17 05:01:28;;;;;;;20.45;13.88;;;;;;;-140.66;100.00;55571.53;5117152;28;20057;-78
2023/05/17 05:04:13;;;;;;;19.20;14.75;;;;;;;-140.66;100.00;55571.53;5117288;28;20462;-78
2023/05/17 05:06:59;;;;;;;24.70;15.48;;;;;;;-140.66;100.00;55571.53;5117752;28;20027;-77
2023/05/17 05:09:45;;;;;;;24.65;16.70;;;;;;;-140.66;100.00;55571.53;5116967;28;20337;-77
2023/05/17 05:12:31;;;;;;;34.47;17.65;;;;;;;-140.66;100.00;55571.53;5103020;28;20043;-76
2023/05/17 05:15:17;;;;;;;26.98;17.05;;;;;;;-140.66;100.00;55571.53;5102466;28;20016;-77
2023/05/17 05:18:03;;;;;;;25.88;15.93;;;;;;;-140.66;100.00;55571.53;5103065;28;20110;-78
2023/05/17 05:20:48;;;;;;;30.08;18.90;;;;;;;-140.66;100.00;55571.53;5117069;28;20386;-77
2023/05/17 05:23:34;;;;;;;27.73;19.33;;;;;;;-140.66;100.00;55571.53;5103389;28;20176;-78
2023/05/17 05:26:20;;;;;;;29.77;19.85;;;;;;;-140.66;100.00;55571.53;5117269;28;20024;-78
2023/05/17 05:29:06;;;;;;;33.92;20.75;;;;;;;-140.66;100.00;55571.53;5117426;28;20047;-79
2023/05/17 05:31:51;;;;;;;28.60;19.58;;;;;;;-140.66;100.00;55571.53;5102689;28;20443;-79
2023/05/17 05:34:38;;;;;;;29.73;19.30;;;;;;;-140.66;100.00;55571.53;5117305;28;20027;-78
2023/05/17 05:37:23;;;;;;;30.20;19.00;;;;;;;-140.66;100.00;55571.53;5117593;28;20027;-78
2023/05/17 05:40:10;;;;;;;24.80;17.65;;;;;;;-140.66;100.00;55571.53;5117297;28;20414;-79
2023/05/17 05:42:56;;;;;;;26.88;18.38;;;;;;;-140.66;100.00;55571.53;5117078;28;20034;-76
2023/05/17 05:45:45;;;;;;;27.13;19.05;;;;;;;-140.66;100.00;55571.53;5102503;28;20023;-76
2023/05/17 05:48:31;;;;;;;28.40;17.88;;;;;;;-140.66;100.00;55571.53;5116608;28;20031;-76
2023/05/17 05:51:18;;;;;;;26.60;15.68;;;;;;;-140.66;100.00;55571.53;5102087;28;20023;-76
2023/05/17 05:54:03;;;;;;;30.13;16.70;;;;;;;-140.66;100.00;55571.53;5102665;28;20038;-77
2023/05/17 05:56:50;;;;;;;22.63;15.15;;;;;;;-140.66;100.00;55571.53;5117462;28;20123;-77
2023/05/17 05:59:35;;;;;;;22.55;13.95;;;;;;;-140.66;100.00;55571.53;5102312;28;20070;-74
2023/05/17 06:02:21;;;;;;;20.27;14.63;;;;;;;-140.66;100.00;55571.53;5116551;28;20352;-74
2023/05/17 06:05:08;;;;;;;22.30;14.48;;;;;;;-140.66;100.00;55571.53;5117909;28;20463;-75
2023/05/17 06:07:54;;;;;;;23.58;14.60;;;;;;;-140.66;100.00;55571.53;5102438;28;20467;-74
2023/05/17 06:10:40;;;;;;;23.40;13.85;;;;;;;-140.66;100.00;55571.53;5102437;28;20024;-73
2023/05/17 06:13:26;;;;;;;20.80;13.05;;;;;;;-140.66;100.00;55571.53;5107718;27;20443;-75
2023/05/17 06:16:12;;;;;;;20.42;12.93;;;;;;;-140.66;100.00;55571.53;5107873;28;20038;-72
2023/05/17 06:18:58;;;;;;;22.70;12.52;;;;;;;-140.66;100.00;55571.53;5108725;28;20073;-76
2023/05/17 06:21:43;;;;;;;24.92;13.70;;;;;;;-140.66;100.00;55571.53;5109965;27;20031;-79
2023/05/17 06:24:29;;;;;;;22.45;13.10;;;;;;;-140.66;100.00;55571.53;5091606;28;20042;-77
2023/05/17 06:27:15;;;;;;;24.60;15.35;;;;;;;-140.66;100.00;55571.53;5108180;28;20069;-78
2023/05/17 06:30:01;;;;;;;19.60;12.63;;;;;;;-140.66;100.00;55571.53;5105484;28;20107;-78
2023/05/17 06:32:46;;;;;;;20.25;11.63;;;;;;;-140.66;100.00;55571.53;5091970;28;20092;-75
2023/05/17 06:35:33;;;;;;;21.92;12.05;;;;;;;-140.66;100.00;55571.53;5108695;28;20036;-76
2023/05/17 06:38:23;;;;;;;21.10;11.57;;;;;;;-140.66;100.00;55571.53;5120572;28;20031;-79
2023/05/17 06:41:08;;;;;;;23.50;10.75;;;;;;;-140.66;100.00;55571.53;5104026;28;20046;-78
2023/05/17 06:43:54;;;;;;;16.67;10.45;;;;;;;-140.66;100.00;55571.53;5119088;28;20027;-79
2023/05/17 06:46:49;;;;;;;16.75;10.07;;;;;;;-140.66;100.00;55571.53;5109189;28;20027;-77
2023/05/17 06:49:36;;;;;;;15.75;9.30;;;;;;;-140.66;100.00;55571.53;5094132;28;20023;-79
2023/05/17 06:52:22;;;;;;;11.88;8.77;;;;;;;-140.66;100.00;55571.53;5094157;28;20020;-79
2023/05/17 06:55:08;;;;;;;20.05;9.20;;;;;;;-140.66;100.00;55571.53;5104996;28;20032;-79
2023/05/17 06:57:53;;;;;;;20.30;9.02;;;;;;;-140.66;100.00;55571.53;5092955;28;20032;-78
2023/05/17 07:00:39;;;;;;;15.95;9.35;;;;;;;-140.66;100.00;55571.53;5103997;28;20032;-78
2023/05/17 07:03:37;;;;;;;14.75;9.57;;;;;;;-140.66;100.00;55571.53;5101827;28;20034;-77
2023/05/17 07:06:28;;;;;;;15.98;9.23;;;;;;;-140.66;100.00;55571.53;5096367;28;20040;-78
2023/05/17 07:09:14;;;;;;;17.88;9.35;;;;;;;-140.66;100.00;55571.53;5098101;28;20070;-77
2023/05/17 07:12:01;;;;;;;15.93;9.80;;;;;;;-140.66;100.00;55571.53;5110293;28;20035;-77
2023/05/17 07:14:47;;;;;;;18.73;10.07;;;;;;;-140.66;100.00;55571.53;5110355;28;20067;-77
2023/05/17 07:17:32;;;;;;;17.48;9.95;;;;;;;-140.66;100.00;55571.53;5099528;28;20058;-78
2023/05/17 07:20:21;;;;;;;18.90;9.43;;;;;;;-140.66;100.00;55571.53;5114379;28;20027;-77
2023/05/17 07:23:07;;;;;;;17.63;10.38;;;;;;;-140.66;100.00;55571.53;5110198;28;20532;-79
2023/05/17 07:25:53;;;;;;;20.40;11.02;;;;;;;-140.66;100.00;55571.53;5092792;28;20050;-77
2023/05/17 07:28:38;;;;;;;15.60;10.45;;;;;;;-140.66;100.00;55571.53;5108875;28;20471;-77
2023/05/17 07:31:25;;;;;;;17.95;11.10;;;;;;;-140.66;100.00;55571.53;5109817;28;20033;-78
2023/05/17 07:34:11;;;;;;;19.70;11.07;;;;;;;-140.66;100.00;55571.53;5104231;28;20088;-79
2023/05/17 07:36:56;;;;;;;19.08;11.52;;;;;;;-140.66;100.00;55571.53;5104545;28;20027;-78
2023/05/17 07:39:42;;;;;;;17.08;10.77;;;;;;;-140.66;100.00;55571.53;5107217;28;20664;-78
2023/05/17 07:42:28;;;;;;;20.90;11.43;;;;;;;-140.66;100.00;55571.53;5104650;28;20110;-77
2023/05/17 07:45:14;;;;;;;15.63;10.32;;;;;;;-140.66;100.00;55571.53;5091064;28;20135;-77
2023/05/17 07:48:00;;;;;;;16.17;11.05;;;;;;;-140.66;100.00;55571.53;5104772;28;20126;-79
2023/05/17 07:50:47;;;;;;;16.20;11.02;;;;;;;-140.66;100.00;55571.53;5108780;28;20039;-77
2023/05/17 07:53:33;;;;;;;16.67;9.70;;;;;;;-140.66;100.00;55571.53;5107740;28;20138;-78
2023/05/17 07:56:19;;;;;;;19.98;10.55;;;;;;;-140.66;100.00;55571.53;5108019;28;20016;-77
2023/05/17 07:59:05;;;;;;;19.55;10.32;;;;;;;-140.66;100.00;55571.53;5108109;28;20476;-76
2023/05/17 08:01:53;;;;;;;19.85;10.98;;;;;;;-140.66;100.00;55571.53;5111125;28;20038;-77
2023/05/17 08:05:15;;;;;;;17.48;11.82;;;;;;;-140.66;100.00;55571.53;5106544;28;20031;-77
2023/05/17 08:08:13;;;;;;;23.58;12.30;;;;;;;-140.66;100.00;55571.53;5108536;28;20031;-77
2023/05/17 08:11:02;;;;;;;25.02;13.88;;;;;;;-140.66;100.00;55571.53;5111189;28;20027;-80
2023/05/17 08:13:50;;;;;;;22.88;13.75;;;;;;;-140.66;100.00;55571.53;5117128;28;20036;-77
2023/05/17 08:16:36;;;;;;;24.00;13.95;;;;;;;-140.66;100.00;55571.53;5102664;28;20065;-78
2023/05/17 08:19:25;;;;;;;26.05;14.57;;;;;;;-140.66;100.00;55571.53;5101588;28;20649;-76
2023/05/17 08:22:11;;;;;;;24.75;12.98;;;;;;;-140.66;100.00;55571.53;5115676;28;20043;-76
2023/05/17 08:25:02;;;;;;;30.10;14.63;;;;;;;-140.66;100.00;55571.53;5113440;28;20039;-77
2023/05/17 08:27:48;;;;;;;24.15;13.68;;;;;;;-140.66;100.00;55571.53;5110885;28;20064;-78
2023/05/17 08:30:34;;;;;;;23.77;14.63;;;;;;;-140.66;100.00;55571.53;5109939;28;20467;-78
2023/05/17 08:33:21;;;;;;;21.40;13.40;;;;;;;-140.66;100.00;55571.53;5110824;27;20114;-76
2023/05/17 08:36:07;;;;;;;28.30;15.40;;;;;;;-140.66;100.00;55571.53;5114667;28;20109;-77
2023/05/17 08:38:53;;;;;;;25.00;15.45;;;;;;;-140.66;100.00;55571.53;5112695;28;20370;-78
2023/05/17 08:41:39;;;;;;;26.90;16.00;;;;;;;-140.66;100.00;55571.53;5117084;28;20042;-77
2023/05/17 08:44:27;;;;;;;27.17;15.88;;;;;;;-140.66;100.00;55571.53;5101433;28;20083;-77
2023/05/17 08:47:24;;;;;;;27.40;17.35;;;;;;;-140.66;100.00;55571.53;5100149;28;20440;-76
2023/05/17 08:50:29;;;;;;;25.60;16.83;;;;;;;-140.66;100.00;55571.53;5114418;28;20031;-78
2023/05/17 08:53:16;;;;;;;23.02;16.90;;;;;;;-140.66;100.00;55571.53;5111949;28;20104;-78
2023/05/17 08:56:04;;;;;;;25.73;16.35;;;;;;;-140.66;100.00;55571.53;5083321;28;20020;-78
2023/05/17 08:58:55;;;;;;;26.63;16.35;;;;;;;-140.66;100.00;55571.53;5111709;28;20031;-78
2023/05/17 09:01:42;;;;;;;25.08;16.48;;;;;;;-140.66;100.00;55571.53;5114922;28;20375;-77
2023/05/17 09:04:29;;;;;;;24.45;15.85;;;;;;;-140.66;100.00;55571.53;5096196;28;20034;-77
2023/05/17 09:07:16;;;;;;;20.30;13.80;;;;;;;-140.66;100.00;55571.53;5097678;28;20104;-77
2023/05/17 09:10:05;;;;;;;27.15;15.02;;;;;;;-140.66;100.00;55571.53;5112050;28;20100;-77
2023/05/17 09:12:52;;;;;;;24.52;14.90;;;;;;;-140.66;100.00;55571.53;5113398;28;20032;-78
2023/05/17 09:15:46;;;;;;;24.98;16.27;;;;;;;-140.66;100.00;55571.53;5111647;28;20145;-79
2023/05/17 09:18:31;;;;;;;21.35;14.45;;;;;;;-140.66;100.00;55571.53;5097863;28;20487;-77
2023/05/17 09:21:17;;;;;;;23.70;14.60;;;;;;;-140.66;100.00;55571.53;5112368;28;20409;-77
2023/05/17 09:24:03;;;;;;;23.40;13.65;;;;;;;-140.66;100.00;55571.53;5096570;28;20459;-77
2023/05/17 09:26:49;;;;;;;18.85;11.60;;;;;;;-140.66;100.00;55571.53;5113149;27;20036;-77
2023/05/17 09:29:40;;;;;;;22.50;12.27;;;;;;;-140.66;100.00;55571.53;5113102;28;20509;-77
2023/05/17 09:32:27;;;;;;;18.52;11.35;;;;;;;-140.66;100.00;55571.53;5110007;28;20080;-77
2023/05/17 09:35:13;;;;;;;20.83;11.57;;;;;;;-140.66;100.00;55571.53;5095493;28;20342;-77
2023/05/17 09:38:12;;;;;;;17.60;11.65;;;;;;;-140.66;100.00;55571.53;5097942;28;20055;-77
2023/05/17 09:41:01;;;;;;;16.60;12.13;;;;;;;-140.66;100.00;55571.53;5100709;28;20078;-77
2023/05/17 09:43:48;;;;;;;17.10;10.45;;;;;;;-140.66;100.00;55571.53;5115656;28;20047;-77
2023/05/17 09:46:35;;;;;;;17.60;10.25;;;;;;;-140.66;100.00;55571.53;5111141;28;20530;-77
2023/05/17 09:49:20;;;;;;;19.75;10.00;;;;;;;-140.66;100.00;55571.53;5112013;28;20031;-76
2023/05/17 09:52:10;;;;;;;19.80;10.15;;;;;;;-140.66;100.00;55571.53;5096094;28;20119;-77
2023/05/17 09:54:57;;;;;;;17.38;10.13;;;;;;;-140.66;100.00;55571.53;5091898;28;20081;-77
2023/05/17 09:57:43;;;;;;;18.13;9.80;;;;;;;-140.66;100.00;55571.53;5111383;28;20114;-76
2023/05/17 10:00:31;;;;;;;19.88;12.60;;;;;;;-140.66;100.00;55571.53;5111156;28;20476;-76
2023/05/17 10:03:16;;;;;;;22.35;11.68;;;;;;;-140.66;100.00;55571.53;5121288;28;20035;-75
2023/05/17 10:06:08;;;;;;;18.08;10.32;;;;;;;-140.66;100.00;55571.53;5113720;28;20042;-75
2023/05/17 10:08:59;;;;;;;18.73;10.18;;;;;;;-140.66;100.00;55571.53;5106841;28;20030;-73
2023/05/17 10:11:45;;;;;;;14.77;9.70;;;;;;;-140.66;100.00;55571.53;5108669;28;20039;-76
2023/05/17 10:14:37;;;;;;;17.02;10.30;;;;;;;-140.66;100.00;55571.53;5091114;28;20020;-74
2023/05/17 10:17:23;;;;;;;20.90;10.80;;;;;;;-140.66;100.00;55571.53;5092509;28;20027;-76
2023/05/17 10:20:14;;;;;;;20.23;10.85;;;;;;;-140.66;100.00;55571.53;5109269;28;20032;-78
2023/05/17 10:23:02;;;;;;;25.20;12.15;;;;;;;-140.66;100.00;55571.53;5106790;28;20036;-75
2023/05/17 10:25:51;;;;;;;17.08;10.63;;;;;;;-140.66;100.00;55571.53;5105727;28;20032;-77
2023/05/17 10:28:38;;;;;;;19.70;10.82;;;;;;;-140.66;100.00;55571.53;5092538;28;20101;-76
2023/05/17 10:31:24;;;;;;;19.08;9.85;;;;;;;-140.66;100.00;55571.53;5108281;28;20094;-78
2023/05/17 10:34:10;;;;;;;20.85;10.10;;;;;;;-140.66;100.00;55571.53;5106737;28;20059;-78
2023/05/17 10:36:57;;;;;;;16.02;9.20;;;;;;;-140.66;100.00;55571.53;5107430;28;20030;-76
2023/05/17 10:39:45;;;;;;;17.05;9.45;;;;;;;-140.66;100.00;55571.53;5106123;28;20133;-77
2023/05/17 10:42:31;;;;;;;18.63;8.77;;;;;;;-140.66;100.00;55571.53;5091442;28;20466;-79
2023/05/17 10:45:23;;;;;;;13.77;8.00;;;;;;;-140.66;100.00;55571.53;5091503;28;20088;-78
2023/05/17 10:48:09;;;;;;;12.52;7.90;;;;;;;-140.66;100.00;55571.53;5106180;28;20114;-78
2023/05/17 10:50:55;;;;;;;14.32;8.02;;;;;;;-140.66;100.00;55571.53;5106632;28;20398;-76
2023/05/17 10:54:20;;;;;;;17.50;8.40;;;;;;;-140.66;100.00;55571.53;5105632;28;20127;-77
2023/05/17 10:57:15;;;;;;;12.52;7.20;;;;;;;-140.66;100.00;55571.53;5106245;28;20031;-76
2023/05/17 11:00:06;;;;;;;11.35;7.07;;;;;;;-140.66;100.00;55571.53;5104896;28;20062;-75
2023/05/17 11:03:15;;;;;;;12.82;6.45;;;;;;;-140.66;100.00;55571.53;5105605;28;20371;-74
2023/05/17 11:06:20;;;;;;;11.43;5.10;;;;;;;-140.66;100.00;55571.53;5104920;28;20043;-73
2023/05/17 11:09:16;;;;;;;12.10;5.50;;;;;;;-140.66;100.00;55571.53;5106024;28;20061;-75
2023/05/17 11:12:06;;;;;;;10.75;6.03;;;;;;;-140.66;100.00;55571.53;5109051;28;20050;-76
2023/05/17 11:14:53;;;;;;;8.60;5.20;;;;;;;-140.66;100.00;55571.53;5096635;28;20120;-77
2023/05/17 11:17:42;;;;;;;8.88;4.80;;;;;;;-140.66;100.00;55571.53;5098024;28;20479;-79
2023/05/17 11:20:33;;;;;;;8.35;4.90;;;;;;;-140.66;100.00;55571.53;5093984;28;20051;-77
2023/05/17 11:23:22;;;;;;;9.50;5.00;;;;;;;-140.66;100.00;55571.53;5105975;28;20063;-76
2023/05/17 11:26:17;;;;;;;8.60;4.97;;;;;;;-140.66;100.00;55571.53;5090187;28;20483;-77
2023/05/17 11:29:09;;;;;;;11.05;5.30;;;;;;;-140.66;100.00;55571.53;5075698;28;20370;-77
2023/05/17 11:31:55;;;;;;;8.40;5.35;;;;;;;-140.66;100.00;55571.53;5051380;28;20028;-77
2023/05/17 11:34:40;;;;;;;10.95;4.47;;;;;;;-140.66;100.00;55571.53;5043684;28;20028;-77
2023/05/17 11:37:28;;;;;;;8.25;4.82;;;;;;;-140.66;100.00;55571.53;5066401;28;20348;-77
2023/05/17 11:40:32;;;;;;;11.13;4.20;;;;;;;-140.66;100.00;55571.53;5051308;28;20040;-77
2023/05/17 11:43:29;;;;;;;9.75;4.07;;;;;;;-140.66;100.00;55571.53;5057913;28;20104;-79
2023/05/17 11:46:21;;;;;;;8.68;3.85;;;;;;;-140.66;100.00;55571.53;5065911;28;20051;-77
2023/05/17 11:49:07;;;;;;;7.68;4.00;;;;;;;-140.66;100.00;55571.53;5065170;28;20032;-78
2023/05/17 11:51:56;;;;;;;5.50;3.67;;;;;;;-140.66;100.00;55571.53;5064446;28;20035;-77
2023/05/17 11:54:42;;;;;;;4.90;3.50;;;;;;;-140.66;100.00;55571.53;5064799;28;20029;-77
2023/05/17 11:57:29;;;;;;;10.00;4.00;;;;;;;-140.66;100.00;55571.53;5064827;28;20033;-78
2023/05/17 12:00:16;;;;;;;7.60;3.50;;;;;;;-140.66;100.00;55571.53;5051874;28;20028;-75
2023/05/17 12:03:34;;;;;;;4.95;3.30;;;;;;;-140.66;100.00;55571.53;5064562;28;20020;-75
2023/05/17 12:06:20;;;;;;;6.35;3.70;;;;;;;-140.66;100.00;55571.53;5036047;28;20048;-75
2023/05/17 12:09:09;;;;;;;5.85;3.70;;;;;;;-140.66;100.00;55571.53;5044079;28;20718;-74
2023/05/17 12:11:56;;;;;;;6.38;4.05;;;;;;;-140.66;100.00;55571.53;5058772;28;20329;-76
2023/05/17 12:14:43;;;;;;;5.72;3.00;;;;;;;-140.66;100.00;55571.53;5047229;28;20040;-77
2023/05/17 12:17:36;;;;;;;6.20;3.38;;;;;;;-140.66;100.00;55571.53;5051391;28;20116;-76
2023/05/17 12:20:22;;;;;;;6.45;3.13;;;;;;;-140.66;100.00;55571.53;5065446;28;20372;-75
2023/05/17 12:23:07;;;;;;;5.55;3.22;;;;;;;-140.66;100.00;55571.53;5049155;28;20171;-75
2023/05/17 12:26:17;;;;;;;5.85;2.92;;;;;;;-140.66;100.00;55571.53;5064677;28;20453;-77
2023/05/17 12:29:02;;;;;;;4.53;3.40;;;;;;;-140.66;100.00;55571.53;5080478;28;20052;-75